Miguel Oliver — ECLX — position and weather

sailwx.info

Track history (hours):
 
Tides and Currents Weather Stations Pressure Air Temp Water Temp Dewpoint Dewpoint Depression Visibility Wind Speed Wind Dir Waves Ship Positions

Oceanographic research ship Miguel Oliver (Spain)

Ship's website: http://www.mapa.es/es/pesca/pags/miguel_web/index.htm

Last reported at 2018-Jun-14 14:25 UTC. Time now 2018-Jun-18 00:23 UTC.
Position N 39°26' E 003°20'.

Length 70 m; draft 4.8 m.

Type: Other ship. MMSI: 225322000.

Date/timePositionNaut miles runAvg speedWind from/ knotsBaromVisibWave heightAir tempDewpointWater temp
2018-Jun-14 14:25N 39°26' E 003°20'5 2.9
2018-Jun-14 12:30N 39°21' E 003°18'6 0.4
2018-Jun-13 23:28N 39°26' E 003°22'5 3.5
2018-Jun-13 22:04N 39°21' E 003°19'1 3.3
2018-Jun-13 21:54N 39°21' E 003°18'10 1.8
2018-Jun-13 16:22N 39°14' E 003°09'2 5.3
2018-Jun-13 16:00N 39°13' E 003°07'3 6.0
2018-Jun-13 15:30N 39°14' E 003°03'3 5.1
2018-Jun-13 15:00N 39°14' E 002°59'0 1.0
2018-Jun-13 14:30N 39°14' E 003°00'2 3.4
2018-Jun-13 13:58N 39°14' E 002°58'5 9.9
2018-Jun-13 13:30N 39°15' E 002°52'1 1.4
2018-Jun-13 13:01N 39°15' E 002°51'1 2.7
2018-Jun-13 12:30N 39°14' E 002°52'510.1
2018-Jun-13 12:00N 39°17' E 002°47'3 6.1
2018-Jun-13 11:30N 39°19' E 002°45'2 3.9
2018-Jun-13 11:00N 39°21' E 002°43'4 8.6
2018-Jun-13 10:30N 39°18' E 002°47'5 9.5
2018-Jun-13 10:00N 39°16' E 002°53'4 8.6
2018-Jun-13 09:30N 39°14' E 002°58'1 2.7
2018-Jun-13 09:00N 39°14' E 002°60'1 1.1
2018-Jun-13 08:29N 39°13' E 003°00'1 1.8
2018-Jun-13 07:41N 39°14' E 002°59'0 0.5
2018-Jun-13 07:29N 39°14' E 002°59'5 9.4
2018-Jun-13 06:59N 39°14' E 003°05'3 5.5
2018-Jun-13 06:30N 39°13' E 003°08'1 0.6
2018-Jun-13 05:21N 39°14' E 003°09'1 2.2
2018-Jun-13 05:00N 39°13' E 003°08'4 0.9
2018-Jun-13 00:52N 39°16' E 003°12'0 0.5
2018-Jun-13 00:27N 39°16' E 003°11'0 0.4
2018-Jun-12 23:51N 39°16' E 003°11'0 0.5
2018-Jun-12 23:13N 39°16' E 003°11'3 1.0
2018-Jun-12 19:51N 39°14' E 003°07'1 4.1
2018-Jun-12 19:30N 39°13' E 003°06'7 6.3
2018-Jun-12 18:28N 39°15' E 002°58'3 6.6
2018-Jun-12 18:00N 39°14' E 002°54'3 6.5
2018-Jun-12 17:30N 39°13' E 002°50'3 6.8
2018-Jun-12 16:59N 39°12' E 002°45'3 6.7
2018-Jun-12 16:30N 39°12' E 002°41'3 6.6
2018-Jun-12 16:00N 39°11' E 002°37'3 6.6
2018-Jun-12 15:30N 39°10' E 002°33'1 2.3
2018-Jun-12 15:00N 39°09' E 002°33'1 1.3
2018-Jun-12 14:30N 39°08' E 002°34'1 2.9
2018-Jun-12 14:00N 39°07' E 002°35'1 2.8
2018-Jun-12 13:30N 39°06' E 002°36'2 5.0
2018-Jun-12 13:00N 39°04' E 002°38'5 9.1
2018-Jun-12 12:29N 39°03' E 002°44'2 1.0
2018-Jun-12 10:08N 39°03' E 002°47'4 9.6
2018-Jun-12 09:42N 39°06' E 002°43'1 2.9
2018-Jun-12 09:29N 39°05' E 002°42'1 2.4
2018-Jun-12 08:56N 39°04' E 002°42'4 4.0
2018-Jun-12 07:55N 39°01' E 002°39'1 1.3
2018-Jun-12 07:30N 39°00' E 002°39'0 0.0
2018-Jun-12 04:38N 38°60' E 002°39'1 4.0
2018-Jun-12 04:25N 39°01' E 002°39'2 3.9
2018-Jun-12 03:54N 39°03' E 002°40'2 4.5
2018-Jun-12 03:28N 39°04' E 002°41'2 4.6
2018-Jun-12 02:58N 39°06' E 002°43'2 4.4
2018-Jun-12 02:30N 39°08' E 002°45'2 4.4
2018-Jun-12 02:00N 39°09' E 002°47'2 4.6
2018-Jun-12 01:30N 39°11' E 002°48'2 4.6
2018-Jun-12 01:00N 39°13' E 002°50'1 2.8
2018-Jun-12 00:30N 39°14' E 002°51'0 0.9
2018-Jun-12 00:00N 39°14' E 002°50'0 1.0
2018-Jun-11 23:30N 39°14' E 002°50'0 0.8
2018-Jun-11 23:00N 39°14' E 002°49'0 0.8
2018-Jun-11 22:30N 39°14' E 002°49'0 0.8
2018-Jun-11 22:00N 39°14' E 002°48'0 0.8
2018-Jun-11 21:30N 39°14' E 002°48'0 0.8
2018-Jun-11 21:00N 39°14' E 002°47'0 0.7
2018-Jun-11 20:30N 39°14' E 002°47'0 0.8
2018-Jun-11 19:58N 39°14' E 002°46'0 0.8
2018-Jun-11 19:30N 39°14' E 002°46'0 0.7
2018-Jun-11 19:00N 39°14' E 002°45'0 0.7
2018-Jun-11 18:30N 39°14' E 002°45'0 0.7
2018-Jun-11 18:00N 39°14' E 002°44'0 0.7
2018-Jun-11 17:30N 39°14' E 002°44'0 0.2
2018-Jun-11 17:00N 39°14' E 002°44'2 4.9
2018-Jun-11 16:30N 39°15' E 002°41'3 5.1
2018-Jun-11 16:00N 39°16' E 002°38'2 5.0
2018-Jun-11 15:30N 39°17' E 002°35'2 4.9
2018-Jun-11 15:00N 39°17' E 002°32'2 4.8
2018-Jun-11 14:30N 39°18' E 002°29'3 5.5
2018-Jun-11 14:00N 39°18' E 002°25'1 1.3
2018-Jun-11 13:30N 39°18' E 002°24'2 2.9
2018-Jun-11 12:59N 39°17' E 002°26'1 2.9
2018-Jun-11 12:30N 39°16' E 002°27'3 4.5
2018-Jun-11 11:50N 39°13' E 002°29'1 2.2
2018-Jun-11 11:30N 39°13' E 002°29'1 2.6
2018-Jun-11 11:00N 39°12' E 002°30'2 3.0
2018-Jun-11 10:29N 39°11' E 002°32'2 3.9
2018-Jun-11 10:00N 39°10' E 002°34'1 1.1
2018-Jun-11 09:29N 39°10' E 002°33'2 4.8
2018-Jun-11 09:00N 39°10' E 002°36'4 8.8
2018-Jun-11 08:30N 39°14' E 002°39'1 2.3
2018-Jun-11 08:00N 39°14' E 002°38'2 4.1
2018-Jun-11 07:23N 39°16' E 002°35'4 9.8
2018-Jun-11 07:00N 39°18' E 002°31'1 2.6
2018-Jun-11 06:30N 39°18' E 002°30'2 3.6
2018-Jun-11 05:59N 39°20' E 002°28'0 0.2
2018-Jun-11 05:30N 39°20' E 002°28'2 3.3
2018-Jun-11 04:58N 39°18' E 002°30'2 3.4
2018-Jun-11 04:30N 39°17' E 002°31'1 3.0
2018-Jun-11 04:00N 39°17' E 002°33'2 4.4
2018-Jun-11 03:29N 39°18' E 002°35'2 4.3
2018-Jun-11 03:00N 39°18' E 002°38'2 4.2
2018-Jun-11 02:29N 39°19' E 002°41'2 4.2
2018-Jun-11 02:00N 39°19' E 002°43'0 0.6
2018-Jun-11 01:30N 39°19' E 002°44'0 0.4
2018-Jun-11 01:00N 39°19' E 002°43'0 0.3
2018-Jun-11 00:30N 39°19' E 002°43'0 0.3
2018-Jun-11 00:00N 39°19' E 002°43'0 0.3
2018-Jun-10 23:28N 39°19' E 002°43'0 0.3
2018-Jun-10 23:00N 39°19' E 002°43'1 2.1
2018-Jun-10 22:30N 39°20' E 002°42'2 3.4
2018-Jun-10 21:59N 39°21' E 002°41'3 6.5
2018-Jun-10 21:30N 39°24' E 002°39'3 6.6
2018-Jun-10 21:00N 39°27' E 002°39'3 6.7
2018-Jun-10 20:30N 39°31' E 002°39'2 4.7
2018-Jun-10 20:00N 39°33' E 002°38'0 0.6
2018-Jun-10 19:30N 39°33' E 002°38'0 0.0
2018-Jun-10 18:58N 39°33' E 002°38'0 0.0
2018-Jun-10 18:28N 39°33' E 002°38'0 0.0
2018-Jun-10 17:58N 39°33' E 002°38'0 0.0
2018-Jun-10 17:29N 39°33' E 002°38'0 0.0
2018-Jun-10 16:59N 39°33' E 002°38'0 0.0
2018-Jun-10 16:29N 39°33' E 002°38'0 0.0
2018-Jun-10 16:00N 39°33' E 002°38'0 0.0
2018-Jun-10 15:30N 39°33' E 002°38'0 0.0
2018-Jun-10 15:00N 39°33' E 002°38'0 0.0
2018-Jun-10 13:58N 39°33' E 002°38'0 0.0
2018-Jun-10 13:28N 39°33' E 002°38'0 0.0
2018-Jun-10 12:59N 39°33' E 002°38'0 0.0
2018-Jun-10 12:29N 39°33' E 002°38'0 0.0
2018-Jun-10 11:59N 39°33' E 002°38'0 0.0
2018-Jun-10 11:30N 39°33' E 002°38'0 0.0
2018-Jun-10 11:00N 39°33' E 002°38'0 0.0
2018-Jun-10 10:30N 39°33' E 002°38'0 0.0
2018-Jun-10 09:58N 39°33' E 002°38'0 0.0
2018-Jun-10 09:28N 39°33' E 002°38'0 0.0
2018-Jun-10 08:58N 39°33' E 002°38'0 0.0
2018-Jun-10 08:29N 39°33' E 002°38'0 0.0
2018-Jun-10 07:59N 39°33' E 002°38'0 0.0
2018-Jun-10 07:29N 39°33' E 002°38'0 0.0
2018-Jun-10 06:43N 39°33' E 002°38'1 2.5
2018-Jun-10 06:30N 39°33' E 002°38'2 3.7
2018-Jun-10 06:00N 39°31' E 002°38'3 6.1
2018-Jun-10 05:30N 39°29' E 002°36'510.2
2018-Jun-10 05:00N 39°25' E 002°32'510.5
2018-Jun-10 04:30N 39°26' E 002°26'5110.4
2018-Jun-09 23:36N 40°16' E 002°14'2111.2
2018-Jun-09 21:41N 40°38' E 002°12'311.4
2018-Jun-09 21:28N 40°40' E 002°12'2611.5
2018-Jun-09 19:14N 41°06' E 002°14'311.8
2018-Jun-09 19:00N 41°08' E 002°14'611.8
2018-Jun-09 18:30N 41°14' E 002°14'611.0
2018-Jun-09 18:00N 41°20' E 002°13'3 0.3
2018-Jun-09 06:34N 41°22' E 002°11'0 0.7
2018-Jun-09 06:30N 41°22' E 002°11'3 5.4
2018-Jun-09 06:00N 41°20' E 002°13'5 9.9
2018-Jun-09 05:30N 41°17' E 002°19'5 9.7
2018-Jun-09 04:58N 41°15' E 002°25'3 6.0
2018-Jun-09 04:30N 41°17' E 002°26'3 5.6
2018-Jun-09 04:00N 41°20' E 002°27'3 5.6
2018-Jun-09 03:30N 41°23' E 002°26'3 5.6
2018-Jun-09 02:57N 41°26' E 002°25'2 3.8
2018-Jun-09 02:29N 41°28' E 002°26'1 0.3
2018-Jun-09 00:41N 41°28' E 002°25'0 0.3
2018-Jun-09 00:14N 41°27' E 002°25'0 0.3
2018-Jun-09 00:00N 41°27' E 002°25'0 0.3
2018-Jun-08 22:39N 41°27' E 002°24'0 0.2
2018-Jun-08 22:30N 41°27' E 002°24'1 1.5
2018-Jun-08 22:00N 41°28' E 002°24'0 0.4
2018-Jun-08 21:30N 41°28' E 002°24'0 0.3
2018-Jun-08 20:54N 41°28' E 002°24'0 0.2
2018-Jun-08 20:29N 41°28' E 002°24'0 0.4
2018-Jun-08 19:58N 41°27' E 002°24'0 0.3
2018-Jun-08 18:54N 41°27' E 002°24'0 0.3
2018-Jun-08 18:27N 41°27' E 002°24'0 0.3
2018-Jun-08 17:59N 41°27' E 002°24'1 0.4
2018-Jun-08 16:08N 41°26' E 002°24'0 0.8
2018-Jun-08 15:50N 41°26' E 002°24'0 0.9
2018-Jun-08 15:24N 41°26' E 002°23'0 0.8
2018-Jun-08 14:58N 41°25' E 002°23'0 0.7
2018-Jun-08 14:14N 41°25' E 002°23'0 0.9
2018-Jun-08 13:52N 41°25' E 002°22'1 2.0
2018-Jun-08 13:09N 41°24' E 002°21'0 1.6
2018-Jun-08 12:53N 41°24' E 002°21'1 1.4
2018-Jun-08 12:30N 41°24' E 002°20'0 0.4
2018-Jun-08 11:59N 41°24' E 002°20'1 1.4
2018-Jun-08 11:30N 41°24' E 002°20'3 7.0
2018-Jun-08 11:00N 41°21' E 002°19'510.2
2018-Jun-08 10:30N 41°16' E 002°19'5 9.8
2018-Jun-08 10:00N 41°11' E 002°19'2 3.6
2018-Jun-08 09:30N 41°09' E 002°20'1 2.1
2018-Jun-08 09:00N 41°10' E 002°21'2 2.9
2018-Jun-08 08:28N 41°10' E 002°23'2 5.0
2018-Jun-08 08:00N 41°10' E 002°26'4 7.8
2018-Jun-08 07:28N 41°13' E 002°22'1 1.8
2018-Jun-08 06:59N 41°13' E 002°20'1 3.0
2018-Jun-08 06:30N 41°13' E 002°18'2 3.4
2018-Jun-08 06:00N 41°12' E 002°16'1 2.0
2018-Jun-08 05:31N 41°12' E 002°15'3 6.0
2018-Jun-08 05:00N 41°12' E 002°19'4 3.1
2018-Jun-08 03:44N 41°12' E 002°14'2 9.8
2018-Jun-08 03:30N 41°12' E 002°11'5 9.7
2018-Jun-08 03:00N 41°11' E 002°04'4 7.4
2018-Jun-08 02:30N 41°11' E 001°59'2 4.5
2018-Jun-08 02:00N 41°10' E 001°57'2 3.5
2018-Jun-08 01:30N 41°10' E 001°54'0 0.7
2018-Jun-08 01:00N 41°10' E 001°54'0 0.3
2018-Jun-08 00:30N 41°10' E 001°54'0 0.4
2018-Jun-08 00:00N 41°10' E 001°53'0 0.4
2018-Jun-07 23:30N 41°10' E 001°53'0 0.3
2018-Jun-07 23:00N 41°10' E 001°53'1 2.3
2018-Jun-07 22:30N 41°09' E 001°54'0 0.6
2018-Jun-07 22:00N 41°09' E 001°54'0 0.5
2018-Jun-07 21:30N 41°09' E 001°54'1 1.0
2018-Jun-07 21:00N 41°09' E 001°53'1 3.0
2018-Jun-07 20:30N 41°09' E 001°51'1 3.0
2018-Jun-07 20:00N 41°09' E 001°50'1 1.9
2018-Jun-07 19:30N 41°09' E 001°48'0 0.5
2018-Jun-07 19:00N 41°09' E 001°48'0 0.5
2018-Jun-07 18:29N 41°09' E 001°48'0 0.4
2018-Jun-07 18:00N 41°08' E 001°48'0 0.4
2018-Jun-07 17:30N 41°08' E 001°48'0 0.9
2018-Jun-07 17:00N 41°08' E 001°47'2 3.6
2018-Jun-07 16:30N 41°06' E 001°47'2 4.9
2018-Jun-07 16:00N 41°04' E 001°46'2 4.2
2018-Jun-07 15:30N 41°02' E 001°47'1 1.8
2018-Jun-07 15:00N 41°02' E 001°48'2 2.9
2018-Jun-07 14:29N 41°02' E 001°50'2 3.8
2018-Jun-07 13:59N 41°02' E 001°53'5 9.0
2018-Jun-07 13:29N 41°05' E 001°57'510.5
2018-Jun-07 13:00N 41°08' E 002°03'4 9.0
2018-Jun-07 12:30N 41°11' E 002°07'1 2.3
2018-Jun-07 12:00N 41°12' E 002°08'2 3.0
2018-Jun-07 11:30N 41°13' E 002°10'2 4.1
2018-Jun-07 11:00N 41°14' E 002°12'1 3.0
2018-Jun-07 10:30N 41°14' E 002°10'2 4.0
2018-Jun-07 10:00N 41°13' E 002°07'3 5.7
2018-Jun-07 09:31N 41°12' E 002°04'1 2.9
2018-Jun-07 09:00N 41°11' E 002°02'2 4.0
2018-Jun-07 08:30N 41°10' E 002°00'5 9.3
2018-Jun-07 08:00N 41°10' E 001°54'1 2.7
2018-Jun-07 07:30N 41°10' E 001°52'2 4.6
2018-Jun-07 07:00N 41°09' E 001°50'1 2.8
2018-Jun-07 06:30N 41°09' E 001°48'2 4.2
2018-Jun-07 06:00N 41°09' E 001°45'1 1.8
2018-Jun-07 05:30N 41°08' E 001°46'0 1.0
2018-Jun-07 05:00N 41°08' E 001°45'4 7.9
2018-Jun-07 04:30N 41°09' E 001°50'3 6.4
2018-Jun-07 04:00N 41°10' E 001°55'2 4.5
2018-Jun-07 03:30N 41°07' E 001°55'0 0.2
2018-Jun-07 02:59N 41°07' E 001°55'0 0.2
2018-Jun-07 02:30N 41°07' E 001°54'0 0.1
2018-Jun-07 02:00N 41°07' E 001°54'0 0.3
2018-Jun-07 01:30N 41°07' E 001°54'0 0.3
2018-Jun-07 00:59N 41°07' E 001°54'0 0.4
2018-Jun-07 00:30N 41°08' E 001°54'0 0.1
2018-Jun-07 00:00N 41°08' E 001°54'0 0.4
2018-Jun-06 23:30N 41°07' E 001°54'0 0.6
2018-Jun-06 23:00N 41°07' E 001°54'0 0.6
2018-Jun-06 22:30N 41°07' E 001°53'0 0.8
2018-Jun-06 22:00N 41°07' E 001°54'1 2.8
2018-Jun-06 21:30N 41°09' E 001°54'1 2.7
2018-Jun-06 21:00N 41°10' E 001°54'1 2.8
2018-Jun-06 20:30N 41°11' E 001°53'0 0.6
2018-Jun-06 20:00N 41°12' E 001°53'0 0.6
2018-Jun-06 19:30N 41°11' E 001°53'0 0.6
2018-Jun-06 19:00N 41°11' E 001°53'1 1.5
2018-Jun-06 18:30N 41°12' E 001°54'2 3.7
2018-Jun-06 18:00N 41°12' E 001°56'3 5.6
2018-Jun-06 17:30N 41°12' E 002°00'510.0
2018-Jun-06 17:00N 41°12' E 002°07'510.1
2018-Jun-06 16:30N 41°12' E 002°13'510.4
2018-Jun-06 16:00N 41°13' E 002°20'510.4
2018-Jun-06 15:30N 41°14' E 002°27'510.4
2018-Jun-06 15:00N 41°15' E 002°34'8 2.6
2018-Jun-06 11:52N 41°21' E 002°40'  
Track history (hours):
 
Tides and Currents Weather Stations Pressure Air Temp Water Temp Dewpoint Dewpoint Depression Visibility Wind Speed Wind Dir Waves Ship Positions

Oceanographic research ship Miguel Oliver (Spain)

Ship's website: http://www.mapa.es/es/pesca/pags/miguel_web/index.htm

Last reported at 2018-Jun-14 14:25 UTC. Time now 2018-Jun-18 00:23 UTC.
Position N 39°26' E 003°20'.

Length 70 m; draft 4.8 m.

Type: Other ship. MMSI: 225322000.

Date/timePositionNaut miles runAvg speedWind from/ knotsBaromVisibWave heightAir tempDewpointWater temp
2018-Jun-14 14:25N 39°26' E 003°20'5 2.9
2018-Jun-14 12:30N 39°21' E 003°18'6 0.4
2018-Jun-13 23:28N 39°26' E 003°22'5 3.5
2018-Jun-13 22:04N 39°21' E 003°19'1 3.3
2018-Jun-13 21:54N 39°21' E 003°18'10 1.8
2018-Jun-13 16:22N 39°14' E 003°09'2 5.3
2018-Jun-13 16:00N 39°13' E 003°07'3 6.0
2018-Jun-13 15:30N 39°14' E 003°03'3 5.1
2018-Jun-13 15:00N 39°14' E 002°59'0 1.0
2018-Jun-13 14:30N 39°14' E 003°00'2 3.4
2018-Jun-13 13:58N 39°14' E 002°58'5 9.9
2018-Jun-13 13:30N 39°15' E 002°52'1 1.4
2018-Jun-13 13:01N 39°15' E 002°51'1 2.7
2018-Jun-13 12:30N 39°14' E 002°52'510.1
2018-Jun-13 12:00N 39°17' E 002°47'3 6.1
2018-Jun-13 11:30N 39°19' E 002°45'2 3.9
2018-Jun-13 11:00N 39°21' E 002°43'4 8.6
2018-Jun-13 10:30N 39°18' E 002°47'5 9.5
2018-Jun-13 10:00N 39°16' E 002°53'4 8.6
2018-Jun-13 09:30N 39°14' E 002°58'1 2.7
2018-Jun-13 09:00N 39°14' E 002°60'1 1.1
2018-Jun-13 08:29N 39°13' E 003°00'1 1.8
2018-Jun-13 07:41N 39°14' E 002°59'0 0.5
2018-Jun-13 07:29N 39°14' E 002°59'5 9.4
2018-Jun-13 06:59N 39°14' E 003°05'3 5.5
2018-Jun-13 06:30N 39°13' E 003°08'1 0.6
2018-Jun-13 05:21N 39°14' E 003°09'1 2.2
2018-Jun-13 05:00N 39°13' E 003°08'4 0.9
2018-Jun-13 00:52N 39°16' E 003°12'0 0.5
2018-Jun-13 00:27N 39°16' E 003°11'0 0.4
2018-Jun-12 23:51N 39°16' E 003°11'0 0.5
2018-Jun-12 23:13N 39°16' E 003°11'3 1.0
2018-Jun-12 19:51N 39°14' E 003°07'1 4.1
2018-Jun-12 19:30N 39°13' E 003°06'7 6.3
2018-Jun-12 18:28N 39°15' E 002°58'3 6.6
2018-Jun-12 18:00N 39°14' E 002°54'3 6.5
2018-Jun-12 17:30N 39°13' E 002°50'3 6.8
2018-Jun-12 16:59N 39°12' E 002°45'3 6.7
2018-Jun-12 16:30N 39°12' E 002°41'3 6.6
2018-Jun-12 16:00N 39°11' E 002°37'3 6.6
2018-Jun-12 15:30N 39°10' E 002°33'1 2.3
2018-Jun-12 15:00N 39°09' E 002°33'1 1.3
2018-Jun-12 14:30N 39°08' E 002°34'1 2.9
2018-Jun-12 14:00N 39°07' E 002°35'1 2.8
2018-Jun-12 13:30N 39°06' E 002°36'2 5.0
2018-Jun-12 13:00N 39°04' E 002°38'5 9.1
2018-Jun-12 12:29N 39°03' E 002°44'2 1.0
2018-Jun-12 10:08N 39°03' E 002°47'4 9.6
2018-Jun-12 09:42N 39°06' E 002°43'1 2.9
2018-Jun-12 09:29N 39°05' E 002°42'1 2.4
2018-Jun-12 08:56N 39°04' E 002°42'4 4.0
2018-Jun-12 07:55N 39°01' E 002°39'1 1.3
2018-Jun-12 07:30N 39°00' E 002°39'0 0.0
2018-Jun-12 04:38N 38°60' E 002°39'1 4.0
2018-Jun-12 04:25N 39°01' E 002°39'2 3.9
2018-Jun-12 03:54N 39°03' E 002°40'2 4.5
2018-Jun-12 03:28N 39°04' E 002°41'2 4.6
2018-Jun-12 02:58N 39°06' E 002°43'2 4.4
2018-Jun-12 02:30N 39°08' E 002°45'2 4.4
2018-Jun-12 02:00N 39°09' E 002°47'2 4.6
2018-Jun-12 01:30N 39°11' E 002°48'2 4.6
2018-Jun-12 01:00N 39°13' E 002°50'1 2.8
2018-Jun-12 00:30N 39°14' E 002°51'0 0.9
2018-Jun-12 00:00N 39°14' E 002°50'0 1.0
2018-Jun-11 23:30N 39°14' E 002°50'0 0.8
2018-Jun-11 23:00N 39°14' E 002°49'0 0.8
2018-Jun-11 22:30N 39°14' E 002°49'0 0.8
2018-Jun-11 22:00N 39°14' E 002°48'0 0.8
2018-Jun-11 21:30N 39°14' E 002°48'0 0.8
2018-Jun-11 21:00N 39°14' E 002°47'0 0.7
2018-Jun-11 20:30N 39°14' E 002°47'0 0.8
2018-Jun-11 19:58N 39°14' E 002°46'0 0.8
2018-Jun-11 19:30N 39°14' E 002°46'0 0.7
2018-Jun-11 19:00N 39°14' E 002°45'0 0.7
2018-Jun-11 18:30N 39°14' E 002°45'0 0.7
2018-Jun-11 18:00N 39°14' E 002°44'0 0.7
2018-Jun-11 17:30N 39°14' E 002°44'0 0.2
2018-Jun-11 17:00N 39°14' E 002°44'2 4.9
2018-Jun-11 16:30N 39°15' E 002°41'3 5.1
2018-Jun-11 16:00N 39°16' E 002°38'2 5.0
2018-Jun-11 15:30N 39°17' E 002°35'2 4.9
2018-Jun-11 15:00N 39°17' E 002°32'2 4.8
2018-Jun-11 14:30N 39°18' E 002°29'3 5.5
2018-Jun-11 14:00N 39°18' E 002°25'1 1.3
2018-Jun-11 13:30N 39°18' E 002°24'2 2.9
2018-Jun-11 12:59N 39°17' E 002°26'1 2.9
2018-Jun-11 12:30N 39°16' E 002°27'3 4.5
2018-Jun-11 11:50N 39°13' E 002°29'1 2.2
2018-Jun-11 11:30N 39°13' E 002°29'1 2.6
2018-Jun-11 11:00N 39°12' E 002°30'2 3.0
2018-Jun-11 10:29N 39°11' E 002°32'2 3.9
2018-Jun-11 10:00N 39°10' E 002°34'1 1.1
2018-Jun-11 09:29N 39°10' E 002°33'2 4.8
2018-Jun-11 09:00N 39°10' E 002°36'4 8.8
2018-Jun-11 08:30N 39°14' E 002°39'1 2.3
2018-Jun-11 08:00N 39°14' E 002°38'2 4.1
2018-Jun-11 07:23N 39°16' E 002°35'4 9.8
2018-Jun-11 07:00N 39°18' E 002°31'1 2.6
2018-Jun-11 06:30N 39°18' E 002°30'2 3.6
2018-Jun-11 05:59N 39°20' E 002°28'0 0.2
2018-Jun-11 05:30N 39°20' E 002°28'2 3.3
2018-Jun-11 04:58N 39°18' E 002°30'2 3.4
2018-Jun-11 04:30N 39°17' E 002°31'1 3.0
2018-Jun-11 04:00N 39°17' E 002°33'2 4.4
2018-Jun-11 03:29N 39°18' E 002°35'2 4.3
2018-Jun-11 03:00N 39°18' E 002°38'2 4.2
2018-Jun-11 02:29N 39°19' E 002°41'2 4.2
2018-Jun-11 02:00N 39°19' E 002°43'0 0.6
2018-Jun-11 01:30N 39°19' E 002°44'0 0.4
2018-Jun-11 01:00N 39°19' E 002°43'0 0.3
2018-Jun-11 00:30N 39°19' E 002°43'0 0.3
2018-Jun-11 00:00N 39°19' E 002°43'0 0.3
2018-Jun-10 23:28N 39°19' E 002°43'0 0.3
2018-Jun-10 23:00N 39°19' E 002°43'1 2.1
2018-Jun-10 22:30N 39°20' E 002°42'2 3.4
2018-Jun-10 21:59N 39°21' E 002°41'3 6.5
2018-Jun-10 21:30N 39°24' E 002°39'3 6.6
2018-Jun-10 21:00N 39°27' E 002°39'3 6.7
2018-Jun-10 20:30N 39°31' E 002°39'2 4.7
2018-Jun-10 20:00N 39°33' E 002°38'0 0.6
2018-Jun-10 19:30N 39°33' E 002°38'0 0.0
2018-Jun-10 18:58N 39°33' E 002°38'0 0.0
2018-Jun-10 18:28N 39°33' E 002°38'0 0.0
2018-Jun-10 17:58N 39°33' E 002°38'0 0.0
2018-Jun-10 17:29N 39°33' E 002°38'0 0.0
2018-Jun-10 16:59N 39°33' E 002°38'0 0.0
2018-Jun-10 16:29N 39°33' E 002°38'0 0.0
2018-Jun-10 16:00N 39°33' E 002°38'0 0.0
2018-Jun-10 15:30N 39°33' E 002°38'0 0.0
2018-Jun-10 15:00N 39°33' E 002°38'0 0.0
2018-Jun-10 13:58N 39°33' E 002°38'0 0.0
2018-Jun-10 13:28N 39°33' E 002°38'0 0.0
2018-Jun-10 12:59N 39°33' E 002°38'0 0.0
2018-Jun-10 12:29N 39°33' E 002°38'0 0.0
2018-Jun-10 11:59N 39°33' E 002°38'0 0.0
2018-Jun-10 11:30N 39°33' E 002°38'0 0.0
2018-Jun-10 11:00N 39°33' E 002°38'0 0.0
2018-Jun-10 10:30N 39°33' E 002°38'0 0.0
2018-Jun-10 09:58N 39°33' E 002°38'0 0.0
2018-Jun-10 09:28N 39°33' E 002°38'0 0.0
2018-Jun-10 08:58N 39°33' E 002°38'0 0.0
2018-Jun-10 08:29N 39°33' E 002°38'0 0.0
2018-Jun-10 07:59N 39°33' E 002°38'0 0.0
2018-Jun-10 07:29N 39°33' E 002°38'0 0.0
2018-Jun-10 06:43N 39°33' E 002°38'1 2.5
2018-Jun-10 06:30N 39°33' E 002°38'2 3.7
2018-Jun-10 06:00N 39°31' E 002°38'3 6.1
2018-Jun-10 05:30N 39°29' E 002°36'510.2
2018-Jun-10 05:00N 39°25' E 002°32'510.5
2018-Jun-10 04:30N 39°26' E 002°26'5110.4
2018-Jun-09 23:36N 40°16' E 002°14'2111.2
2018-Jun-09 21:41N 40°38' E 002°12'311.4
2018-Jun-09 21:28N 40°40' E 002°12'2611.5
2018-Jun-09 19:14N 41°06' E 002°14'311.8
2018-Jun-09 19:00N 41°08' E 002°14'611.8
2018-Jun-09 18:30N 41°14' E 002°14'611.0
2018-Jun-09 18:00N 41°20' E 002°13'3 0.3
2018-Jun-09 06:34N 41°22' E 002°11'0 0.7
2018-Jun-09 06:30N 41°22' E 002°11'3 5.4
2018-Jun-09 06:00N 41°20' E 002°13'5 9.9
2018-Jun-09 05:30N 41°17' E 002°19'5 9.7
2018-Jun-09 04:58N 41°15' E 002°25'3 6.0
2018-Jun-09 04:30N 41°17' E 002°26'3 5.6
2018-Jun-09 04:00N 41°20' E 002°27'3 5.6
2018-Jun-09 03:30N 41°23' E 002°26'3 5.6
2018-Jun-09 02:57N 41°26' E 002°25'2 3.8
2018-Jun-09 02:29N 41°28' E 002°26'1 0.3
2018-Jun-09 00:41N 41°28' E 002°25'0 0.3
2018-Jun-09 00:14N 41°27' E 002°25'0 0.3
2018-Jun-09 00:00N 41°27' E 002°25'0 0.3
2018-Jun-08 22:39N 41°27' E 002°24'0 0.2
2018-Jun-08 22:30N 41°27' E 002°24'1 1.5
2018-Jun-08 22:00N 41°28' E 002°24'0 0.4
2018-Jun-08 21:30N 41°28' E 002°24'0 0.3
2018-Jun-08 20:54N 41°28' E 002°24'0 0.2
2018-Jun-08 20:29N 41°28' E 002°24'0 0.4
2018-Jun-08 19:58N 41°27' E 002°24'0 0.3
2018-Jun-08 18:54N 41°27' E 002°24'0 0.3
2018-Jun-08 18:27N 41°27' E 002°24'0 0.3
2018-Jun-08 17:59N 41°27' E 002°24'1 0.4
2018-Jun-08 16:08N 41°26' E 002°24'0 0.8
2018-Jun-08 15:50N 41°26' E 002°24'0 0.9
2018-Jun-08 15:24N 41°26' E 002°23'0 0.8
2018-Jun-08 14:58N 41°25' E 002°23'0 0.7
2018-Jun-08 14:14N 41°25' E 002°23'0 0.9
2018-Jun-08 13:52N 41°25' E 002°22'1 2.0
2018-Jun-08 13:09N 41°24' E 002°21'0 1.6
2018-Jun-08 12:53N 41°24' E 002°21'1 1.4
2018-Jun-08 12:30N 41°24' E 002°20'0 0.4
2018-Jun-08 11:59N 41°24' E 002°20'1 1.4
2018-Jun-08 11:30N 41°24' E 002°20'3 7.0
2018-Jun-08 11:00N 41°21' E 002°19'510.2
2018-Jun-08 10:30N 41°16' E 002°19'5 9.8
2018-Jun-08 10:00N 41°11' E 002°19'2 3.6
2018-Jun-08 09:30N 41°09' E 002°20'1 2.1
2018-Jun-08 09:00N 41°10' E 002°21'2 2.9
2018-Jun-08 08:28N 41°10' E 002°23'2 5.0
2018-Jun-08 08:00N 41°10' E 002°26'4 7.8
2018-Jun-08 07:28N 41°13' E 002°22'1 1.8
2018-Jun-08 06:59N 41°13' E 002°20'1 3.0
2018-Jun-08 06:30N 41°13' E 002°18'2 3.4
2018-Jun-08 06:00N 41°12' E 002°16'1 2.0
2018-Jun-08 05:31N 41°12' E 002°15'3 6.0
2018-Jun-08 05:00N 41°12' E 002°19'4 3.1
2018-Jun-08 03:44N 41°12' E 002°14'2 9.8
2018-Jun-08 03:30N 41°12' E 002°11'5 9.7
2018-Jun-08 03:00N 41°11' E 002°04'4 7.4
2018-Jun-08 02:30N 41°11' E 001°59'2 4.5
2018-Jun-08 02:00N 41°10' E 001°57'2 3.5
2018-Jun-08 01:30N 41°10' E 001°54'0 0.7
2018-Jun-08 01:00N 41°10' E 001°54'0 0.3
2018-Jun-08 00:30N 41°10' E 001°54'0 0.4
2018-Jun-08 00:00N 41°10' E 001°53'0 0.4
2018-Jun-07 23:30N 41°10' E 001°53'0 0.3
2018-Jun-07 23:00N 41°10' E 001°53'1 2.3
2018-Jun-07 22:30N 41°09' E 001°54'0 0.6
2018-Jun-07 22:00N 41°09' E 001°54'0 0.5
2018-Jun-07 21:30N 41°09' E 001°54'1 1.0
2018-Jun-07 21:00N 41°09' E 001°53'1 3.0
2018-Jun-07 20:30N 41°09' E 001°51'1 3.0
2018-Jun-07 20:00N 41°09' E 001°50'1 1.9
2018-Jun-07 19:30N 41°09' E 001°48'0 0.5
2018-Jun-07 19:00N 41°09' E 001°48'0 0.5
2018-Jun-07 18:29N 41°09' E 001°48'0 0.4
2018-Jun-07 18:00N 41°08' E 001°48'0 0.4
2018-Jun-07 17:30N 41°08' E 001°48'0 0.9
2018-Jun-07 17:00N 41°08' E 001°47'2 3.6
2018-Jun-07 16:30N 41°06' E 001°47'2 4.9
2018-Jun-07 16:00N 41°04' E 001°46'2 4.2
2018-Jun-07 15:30N 41°02' E 001°47'1 1.8
2018-Jun-07 15:00N 41°02' E 001°48'2 2.9
2018-Jun-07 14:29N 41°02' E 001°50'2 3.8
2018-Jun-07 13:59N 41°02' E 001°53'5 9.0
2018-Jun-07 13:29N 41°05' E 001°57'510.5
2018-Jun-07 13:00N 41°08' E 002°03'4 9.0
2018-Jun-07 12:30N 41°11' E 002°07'1 2.3
2018-Jun-07 12:00N 41°12' E 002°08'2 3.0
2018-Jun-07 11:30N 41°13' E 002°10'2 4.1
2018-Jun-07 11:00N 41°14' E 002°12'1 3.0
2018-Jun-07 10:30N 41°14' E 002°10'2 4.0
2018-Jun-07 10:00N 41°13' E 002°07'3 5.7
2018-Jun-07 09:31N 41°12' E 002°04'1 2.9
2018-Jun-07 09:00N 41°11' E 002°02'2 4.0
2018-Jun-07 08:30N 41°10' E 002°00'5 9.3
2018-Jun-07 08:00N 41°10' E 001°54'1 2.7
2018-Jun-07 07:30N 41°10' E 001°52'2 4.6
2018-Jun-07 07:00N 41°09' E 001°50'1 2.8
2018-Jun-07 06:30N 41°09' E 001°48'2 4.2
2018-Jun-07 06:00N 41°09' E 001°45'1 1.8
2018-Jun-07 05:30N 41°08' E 001°46'0 1.0
2018-Jun-07 05:00N 41°08' E 001°45'4 7.9
2018-Jun-07 04:30N 41°09' E 001°50'3 6.4
2018-Jun-07 04:00N 41°10' E 001°55'2 4.5
2018-Jun-07 03:30N 41°07' E 001°55'0 0.2
2018-Jun-07 02:59N 41°07' E 001°55'0 0.2
2018-Jun-07 02:30N 41°07' E 001°54'0 0.1
2018-Jun-07 02:00N 41°07' E 001°54'0 0.3
2018-Jun-07 01:30N 41°07' E 001°54'0 0.3
2018-Jun-07 00:59N 41°07' E 001°54'0 0.4
2018-Jun-07 00:30N 41°08' E 001°54'0 0.1
2018-Jun-07 00:00N 41°08' E 001°54'0 0.4
2018-Jun-06 23:30N 41°07' E 001°54'0 0.6
2018-Jun-06 23:00N 41°07' E 001°54'0 0.6
2018-Jun-06 22:30N 41°07' E 001°53'0 0.8
2018-Jun-06 22:00N 41°07' E 001°54'1 2.8
2018-Jun-06 21:30N 41°09' E 001°54'1 2.7
2018-Jun-06 21:00N 41°10' E 001°54'1 2.8
2018-Jun-06 20:30N 41°11' E 001°53'0 0.6
2018-Jun-06 20:00N 41°12' E 001°53'0 0.6
2018-Jun-06 19:30N 41°11' E 001°53'0 0.6
2018-Jun-06 19:00N 41°11' E 001°53'1 1.5
2018-Jun-06 18:30N 41°12' E 001°54'2 3.7
2018-Jun-06 18:00N 41°12' E 001°56'3 5.6
2018-Jun-06 17:30N 41°12' E 002°00'510.0
2018-Jun-06 17:00N 41°12' E 002°07'510.1
2018-Jun-06 16:30N 41°12' E 002°13'510.4
2018-Jun-06 16:00N 41°13' E 002°20'510.4
2018-Jun-06 15:30N 41°14' E 002°27'510.4
2018-Jun-06 15:00N 41°15' E 002°34'8 2.6
2018-Jun-06 11:52N 41°21' E 002°40'  

Dump ship's entire track history